Pedro Point — WDB5945 — position and weather

sailwx.info

Track history (hours):
 
Tides and Currents Weather Stations Pressure Air Temp Water Temp Dewpoint Dewpoint Depression Visibility Wind Speed Wind Dir Waves Ship Positions

Pedro Point

Owner: TAURUS MARINE, SAN FRANCISCO, CA. More information available from US FCC via Universal Licensing System and Coast Guard Vessel Documentation Center.

Last reported at 2017-Dec-01 21:25 UTC. Time now 2017-Dec-12 02:50 UTC.
Position N 37°46' W 122°23'.
Warning: this ship's position is 10 days out of date.

; draft 1.7 m.

Type: Towing. MMSI: 366915390.

Date/timePositionNaut miles runAvg speedWind from/ knotsBaromVisibWave heightAir tempDewpointWater temp
2017-Dec-01 21:25N 37°46' W 122°23'0 0.0
2017-Nov-29 22:28N 37°46' W 122°23'0 0.0
2017-Nov-29 22:00N 37°46' W 122°23'0 0.0
2017-Nov-29 21:30N 37°46' W 122°23'0 0.0
2017-Nov-29 21:00N 37°46' W 122°23'0 0.0
2017-Nov-29 20:30N 37°46' W 122°23'0 0.0
2017-Nov-29 20:00N 37°46' W 122°23'0 0.0
2017-Nov-29 19:30N 37°46' W 122°23'0 0.0
2017-Nov-29 19:00N 37°46' W 122°23'0 0.0
2017-Nov-29 18:30N 37°46' W 122°23'0 0.0
2017-Nov-29 18:00N 37°46' W 122°23'0 0.0
2017-Nov-29 17:30N 37°46' W 122°23'0 0.0
2017-Nov-29 17:00N 37°46' W 122°23'0 0.0
2017-Nov-29 16:30N 37°46' W 122°23'0 0.0
2017-Nov-29 16:00N 37°46' W 122°23'0 0.0
2017-Nov-29 15:30N 37°46' W 122°23'0 0.0
2017-Nov-29 15:00N 37°46' W 122°23'0 0.0
2017-Nov-29 14:30N 37°46' W 122°23'0 0.0
2017-Nov-28 18:59N 37°46' W 122°23'1 2.5
2017-Nov-28 18:30N 37°46' W 122°22'1 2.1
2017-Nov-28 18:01N 37°46' W 122°20'0 0.0
2017-Nov-28 17:30N 37°46' W 122°20'1 2.4
2017-Nov-28 17:00N 37°46' W 122°22'1 2.0
2017-Nov-28 16:31N 37°46' W 122°23'0 0.1
2017-Nov-28 16:00N 37°46' W 122°23'0 0.0
2017-Nov-28 15:00N 37°46' W 122°23'0 0.1
2017-Nov-28 14:30N 37°46' W 122°23'0 0.0
2017-Nov-28 00:46N 37°46' W 122°23'1 5.3
2017-Nov-28 00:30N 37°48' W 122°23'4 8.7
2017-Nov-28 00:00N 37°52' W 122°24'3 5.0
2017-Nov-27 23:30N 37°54' W 122°22'1 1.7
2017-Nov-27 23:00N 37°55' W 122°22'0 0.0
2017-Nov-27 22:30N 37°55' W 122°22'2 4.7
2017-Nov-27 22:00N 37°54' W 122°24'4 7.8
2017-Nov-27 21:30N 37°50' W 122°22'4 8.1
2017-Nov-27 21:00N 37°47' W 122°20'2 3.1
2017-Nov-27 20:30N 37°47' W 122°18'0 0.1
2017-Nov-27 20:01N 37°47' W 122°18'0 0.0
2017-Nov-27 19:30N 37°47' W 122°18'0 0.2
2017-Nov-27 19:01N 37°47' W 122°18'1 1.5
2017-Nov-27 18:30N 37°46' W 122°19'2 3.3
2017-Nov-27 18:00N 37°47' W 122°21'2 3.1
2017-Nov-27 17:30N 37°48' W 122°23'0 0.8
2017-Nov-27 17:00N 37°48' W 122°23'4 7.2
2017-Nov-27 16:30N 37°52' W 122°24'3 5.9
2017-Nov-27 16:00N 37°54' W 122°22'1 1.7
2017-Nov-27 15:30N 37°55' W 122°22'0 0.1
2017-Nov-27 15:00N 37°55' W 122°22'2 3.9
2017-Nov-27 14:30N 37°54' W 122°24'4 8.1
2017-Nov-27 14:00N 37°50' W 122°25'4 7.2
2017-Nov-27 13:30N 37°47' W 122°23'  
Track history (hours):
 
Tides and Currents Weather Stations Pressure Air Temp Water Temp Dewpoint Dewpoint Depression Visibility Wind Speed Wind Dir Waves Ship Positions

Pedro Point

Owner: TAURUS MARINE, SAN FRANCISCO, CA. More information available from US FCC via Universal Licensing System and Coast Guard Vessel Documentation Center.

Last reported at 2017-Dec-01 21:25 UTC. Time now 2017-Dec-12 02:50 UTC.
Position N 37°46' W 122°23'.
Warning: this ship's position is 10 days out of date.

; draft 1.7 m.

Type: Towing. MMSI: 366915390.

Date/timePositionNaut miles runAvg speedWind from/ knotsBaromVisibWave heightAir tempDewpointWater temp
2017-Dec-01 21:25N 37°46' W 122°23'0 0.0
2017-Nov-29 22:28N 37°46' W 122°23'0 0.0
2017-Nov-29 22:00N 37°46' W 122°23'0 0.0
2017-Nov-29 21:30N 37°46' W 122°23'0 0.0
2017-Nov-29 21:00N 37°46' W 122°23'0 0.0
2017-Nov-29 20:30N 37°46' W 122°23'0 0.0
2017-Nov-29 20:00N 37°46' W 122°23'0 0.0
2017-Nov-29 19:30N 37°46' W 122°23'0 0.0
2017-Nov-29 19:00N 37°46' W 122°23'0 0.0
2017-Nov-29 18:30N 37°46' W 122°23'0 0.0
2017-Nov-29 18:00N 37°46' W 122°23'0 0.0
2017-Nov-29 17:30N 37°46' W 122°23'0 0.0
2017-Nov-29 17:00N 37°46' W 122°23'0 0.0
2017-Nov-29 16:30N 37°46' W 122°23'0 0.0
2017-Nov-29 16:00N 37°46' W 122°23'0 0.0
2017-Nov-29 15:30N 37°46' W 122°23'0 0.0
2017-Nov-29 15:00N 37°46' W 122°23'0 0.0
2017-Nov-29 14:30N 37°46' W 122°23'0 0.0
2017-Nov-28 18:59N 37°46' W 122°23'1 2.5
2017-Nov-28 18:30N 37°46' W 122°22'1 2.1
2017-Nov-28 18:01N 37°46' W 122°20'0 0.0
2017-Nov-28 17:30N 37°46' W 122°20'1 2.4
2017-Nov-28 17:00N 37°46' W 122°22'1 2.0
2017-Nov-28 16:31N 37°46' W 122°23'0 0.1
2017-Nov-28 16:00N 37°46' W 122°23'0 0.0
2017-Nov-28 15:00N 37°46' W 122°23'0 0.1
2017-Nov-28 14:30N 37°46' W 122°23'0 0.0
2017-Nov-28 00:46N 37°46' W 122°23'1 5.3
2017-Nov-28 00:30N 37°48' W 122°23'4 8.7
2017-Nov-28 00:00N 37°52' W 122°24'3 5.0
2017-Nov-27 23:30N 37°54' W 122°22'1 1.7
2017-Nov-27 23:00N 37°55' W 122°22'0 0.0
2017-Nov-27 22:30N 37°55' W 122°22'2 4.7
2017-Nov-27 22:00N 37°54' W 122°24'4 7.8
2017-Nov-27 21:30N 37°50' W 122°22'4 8.1
2017-Nov-27 21:00N 37°47' W 122°20'2 3.1
2017-Nov-27 20:30N 37°47' W 122°18'0 0.1
2017-Nov-27 20:01N 37°47' W 122°18'0 0.0
2017-Nov-27 19:30N 37°47' W 122°18'0 0.2
2017-Nov-27 19:01N 37°47' W 122°18'1 1.5
2017-Nov-27 18:30N 37°46' W 122°19'2 3.3
2017-Nov-27 18:00N 37°47' W 122°21'2 3.1
2017-Nov-27 17:30N 37°48' W 122°23'0 0.8
2017-Nov-27 17:00N 37°48' W 122°23'4 7.2
2017-Nov-27 16:30N 37°52' W 122°24'3 5.9
2017-Nov-27 16:00N 37°54' W 122°22'1 1.7
2017-Nov-27 15:30N 37°55' W 122°22'0 0.1
2017-Nov-27 15:00N 37°55' W 122°22'2 3.9
2017-Nov-27 14:30N 37°54' W 122°24'4 8.1
2017-Nov-27 14:00N 37°50' W 122°25'4 7.2
2017-Nov-27 13:30N 37°47' W 122°23'  

Dump ship's entire track history